Aviation Digital Data Service (ADDS)

Output produced by METARs form (0920 UTC 06 May 2016)
found at http://www.aviationweather.gov/adds/metars/
 
KBFD 060853Z AUTO 35006KT 10SM BKN100 07/03 A2978 RMK AO2 SLP084 T00720033 53000
KBFD 060753Z AUTO 36004KT 10SM FEW095 07/03 A2978 RMK AO2 SLP084 T00720033
KBFD 060653Z AUTO 35008KT 10SM OVC065 08/03 A2978 RMK AO2 SLP082 T00830033
KBFD 060553Z AUTO 35008KT 10SM OVC065 09/03 A2978 RMK AO2 SLP084 T00890033 10106 20083 53001
KBFD 060453Z AUTO 36005KT 10SM OVC060 09/03 A2978 RMK AO2 SLP083 T00890033 401440061
KBFD 060353Z AUTO 36003KT 10SM OVC055 09/03 A2978 RMK AO2 SLP082 T00890033
KBFD 060253Z AUTO 01004KT 10SM OVC050 09/03 A2978 RMK AO2 SLP082 T00890033 51007
KBFD 060153Z AUTO 03007KT 10SM CLR 09/03 A2977 RMK AO2 SLP081 T00940033
KBFD 060053Z AUTO 36005KT 10SM CLR 10/03 A2976 RMK AO2 SLP079 T01000033
KBFD 052353Z AUTO 36008KT 10SM FEW041 11/03 A2975 RMK AO2 SLP075 T01060033 10144 20106 53010
KBFD 052253Z AUTO 02008KT 10SM SCT035 BKN044 12/04 A2974 RMK AO2 SLP072 T01170039
KBFD 052153Z AUTO 05012G19KT 10SM BKN036 BKN049 13/04 A2973 RMK AO2 SLP067 T01280039
KBFD 052053Z AUTO 36010G18KT 10SM FEW039 OVC055 13/04 A2972 RMK AO2 SLP063 T01330044 55003
KBFD 051953Z AUTO 02008KT 10SM BKN045 OVC055 13/04 A2971 RMK AO2 SLP062 T01280039
KBFD 051853Z AUTO VRB06KT 10SM BKN030 OVC037 12/05 A2973 RMK AO2 SLP067 T01220050
KBFD 051753Z AUTO 02010KT 350V060 10SM FEW030 OVC039 12/04 A2973 RMK AO2 SLP068 T01220044 10128 20089 58003
KBFD 051653Z AUTO 02008KT 10SM BKN030 OVC036 12/04 A2974 RMK AO2 SLP074 T01170044
KBFD 051609Z AUTO 05009G16KT 10SM BKN030 OVC036 12/04 A2974 RMK AO2 T01170044
KBFD 051553Z AUTO 02009G17KT 340V070 10SM OVC027 12/04 A2974 RMK AO2 SLP072 T01220044
KBFD 051501Z AUTO 05008KT 10SM SCT023 OVC029 12/06 A2974 RMK AO2 T01170061
KBFD 051453Z AUTO 06009G15KT 10SM SCT023 OVC030 12/06 A2974 RMK AO2 SLP070 T01220061 51005
KBFD 051402Z AUTO 07010KT 10SM BKN017 OVC023 12/06 A2973 RMK AO2 T01170061
KBFD 051353Z AUTO 03007KT 360V070 10SM BKN014 OVC021 11/06 A2973 RMK AO2 SLP067 T01110061
KBFD 051311Z AUTO 03005KT 10SM OVC010 09/07 A2973 RMK AO2 CIG 007V013 T00940072
KBFD 051253Z AUTO 06007KT 10SM BKN008 OVC011 09/07 A2972 RMK AO2 CIG 006V009 SLP065 T00940067
KBFD 051153Z AUTO 05005KT 10SM OVC006 09/07 A2972 RMK AO2 CIG 005V009 SLP064 60000 T00890072 10089 20061 53009
KBFD 051136Z AUTO 06003KT 10SM OVC007 09/07 A2972 RMK AO2 CIG 005V012 T00890072
KBFD 051112Z AUTO 04004KT 10SM FEW009 BKN012 OVC070 08/07 A2971 RMK AO2 T00830072
KBFD 051103Z AUTO 06003KT 10SM FEW016 SCT023 OVC070 08/07 A2970 RMK AO2 T00830067
KBFD 051053Z AUTO 03004KT 10SM SCT010 BKN023 OVC070 08/07 A2970 RMK AO2 SLP056 T00830067
KBFD 051051Z AUTO 02003KT 10SM SCT010 BKN018 OVC070 08/07 A2970 RMK AO2
KBFD 050953Z AUTO 00000KT 10SM SCT009 BKN014 OVC021 07/06 A2969 RMK AO2 RAB06E20 SLP053 P0000 T00720061
KBFD 050949Z AUTO 00000KT 10SM SCT009 SCT013 OVC021 08/06 A2969 RMK AO2 RAB06E20 P0000
KBFD 050902Z AUTO 00000KT 10SM BKN009 BKN015 OVC070 08/06 A2969 RMK AO2 T00780061
KBFD 050853Z AUTO 00000KT 10SM SCT009 BKN015 OVC070 07/06 A2969 RMK AO2 SLP053 T00720056 55001
KBFD 050841Z AUTO 00000KT 10SM SCT027 BKN060 OVC070 07/06 A2968 RMK AO2 T00720056
KBFD 050823Z AUTO 00000KT 10SM OVC029 07/06 A2968 RMK AO2 T00720056
KBFD 050753Z AUTO 00000KT 10SM BKN034 OVC070 07/06 A2968 RMK AO2 SLP049 T00670056
KBFD 050713Z AUTO 00000KT 10SM FEW013 BKN034 OVC095 06/05 A2968 RMK AO2 T00610050
KBFD 050703Z AUTO 00000KT 10SM SCT013 BKN020 OVC100 07/05 A2968 RMK AO2 T00670050
KBFD 050653Z AUTO 00000KT 10SM BKN013 OVC022 07/06 A2968 RMK AO2 SLP050 T00720056
KBFD 050606Z AUTO 00000KT 10SM BKN013 BKN100 06/05 A2970 RMK AO2 T00610050
KBFD 050553Z AUTO 00000KT 10SM SCT013 BKN100 07/04 A2969 RMK AO2 SLP055 T00670044 10111 20061 58001
KBFD 050517Z AUTO 00000KT 10SM BKN012 BKN020 OVC027 07/06 A2970 RMK AO2 T00670056
KBFD 050500Z AUTO 00000KT 10SM BKN020 07/04 A2970 RMK AO2 T00670044
KBFD 050453Z AUTO 00000KT 10SM SCT020 07/05 A2970 RMK AO2 SLP057 T00670050 401440006
KBFD 050353Z AUTO 00000KT 10SM BKN075 07/05 A2970 RMK AO2 SLP057 T00720050
KBFD 050253Z AUTO 12003KT 10SM BKN070 08/06 A2970 RMK AO2 SLP058 T00780056 51013
KBFD 050153Z AUTO 12003KT 10SM BKN070 09/06 A2969 RMK AO2 SLP057 T00890056
KBFD 050053Z AUTO 13004KT 10SM CLR 09/06 A2967 RMK AO2 SLP051 T00940056
KBFD 042353Z AUTO 11005KT 10SM FEW080 SCT095 11/06 A2966 RMK AO2 SLP044 60000 T01110056 10144 20111 51007
KBFD 042253Z AUTO 14009KT 10SM BKN085 13/06 A2965 RMK AO2 SLP042 T01280061
KBFD 042153Z AUTO 12005KT 10SM OVC070 13/03 A2965 RMK AO2 SLP040 T01330028